Mischief — IO3479 — position and weather

sailwx.info

Track history (hours):
 
Tides and Currents Weather Stations Pressure Air Temp Water Temp Dewpoint Dewpoint Depression Visibility Wind Speed Wind Dir Waves Ship Positions

Mischief

Last reported at 2015-May-19 20:18 UTC. Time now 2015-Aug-01 11:51 UTC.
Position N 43°42' E 007°17'.
Warning: this ship's position is months out of date.

Length 53 m.

Type: Pleasure craft. MMSI: 247064680.

Date/timePositionNaut miles runAvg speedWind from/ knotsBaromVisibWave heightAir tempDewpointWater temp
2015-May-19 20:18N 43°42' E 007°17'0 0.0
2015-May-19 19:33N 43°42' E 007°17'0 0.0
2015-May-19 18:33N 43°42' E 007°17'0 0.0
2015-May-19 17:33N 43°42' E 007°17'0 0.0
2015-May-19 16:33N 43°42' E 007°17'2 1.6
2015-May-19 15:33N 43°40' E 007°18'4 3.5
2015-May-19 14:32N 43°43' E 007°22'3 2.8
2015-May-19 13:30N 43°40' E 007°23'5317.5
2015-May-19 10:27N 43°45' E 008°37'1517.0
2015-May-19 09:33N 43°45' E 008°58'1515.4
2015-May-19 08:33N 43°47' E 009°19'1515.2
2015-May-19 07:33N 43°49' E 009°40'1515.1
2015-May-19 06:34N 43°50' E 010°01'9 8.8
2015-May-19 05:33N 43°52' E 010°13'1 1.4
2015-May-19 04:32N 43°52' E 010°15'0 0.0
2015-May-18 15:33N 43°52' E 010°15'0 0.0
2015-May-18 14:33N 43°52' E 010°15'0 0.0
2015-May-18 13:33N 43°52' E 010°15'0 0.0
2015-May-18 12:33N 43°52' E 010°15'0 0.0
2015-May-18 11:33N 43°52' E 010°15'0 0.0
2015-May-18 10:33N 43°52' E 010°15'0 0.0
2015-May-17 08:33N 43°52' E 010°14'0 0.0
2015-May-16 18:04N 43°52' E 010°14'0 0.0
2015-May-16 17:31N 43°52' E 010°14'0 0.0
2015-May-16 16:31N 43°52' E 010°14'0 0.0
2015-May-16 15:28N 43°52' E 010°15'0 0.0
2015-May-16 14:32N 43°52' E 010°15'0 0.0
2015-May-16 13:26N 43°52' E 010°14'0 0.0
2015-May-16 12:32N 43°52' E 010°15'0 0.0
2015-May-16 11:32N 43°52' E 010°15'0 0.0
2015-May-16 10:32N 43°52' E 010°15'0 0.0
2015-May-16 09:32N 43°52' E 010°15'0 0.0
2015-May-16 08:32N 43°52' E 010°14'0 0.0
2015-May-16 07:32N 43°52' E 010°15'0 0.0
2015-May-16 06:29N 43°52' E 010°15'0 0.0
2015-May-16 05:32N 43°52' E 010°15'0 0.0
2015-May-16 04:32N 43°52' E 010°14'0 0.0
2015-May-16 03:32N 43°52' E 010°14'0 0.0
2015-May-16 02:32N 43°52' E 010°14'0 0.0
2015-May-16 01:32N 43°52' E 010°14'0 0.0
2015-May-16 00:32N 43°52' E 010°15'0 0.0
2015-May-15 23:32N 43°52' E 010°14'0 0.0
2015-May-15 22:32N 43°52' E 010°15'0 0.0
2015-May-15 21:31N 43°52' E 010°15'0 0.0
2015-May-15 20:28N 43°52' E 010°15'0 0.0
2015-May-15 19:31N 43°52' E 010°14'0 0.0
2015-May-15 18:31N 43°52' E 010°14'0 0.0
2015-May-15 17:31N 43°52' E 010°15'0 0.0
2015-May-15 16:31N 43°52' E 010°14'0 0.0
2015-May-15 15:31N 43°52' E 010°15'0 0.0
2015-May-15 14:31N 43°52' E 010°15'0 0.0
2015-May-15 13:31N 43°52' E 010°15'0 0.0
2015-May-15 12:31N 43°52' E 010°15'0 0.0
2015-May-15 11:31N 43°52' E 010°15'0 0.0
2015-May-15 10:31N 43°52' E 010°14'0 0.0
2015-May-15 09:31N 43°52' E 010°14'0 0.0
2015-May-15 08:31N 43°52' E 010°14'0 0.0
2015-May-15 07:31N 43°52' E 010°15'0 0.0
2015-May-15 06:31N 43°52' E 010°15'0 0.0
2015-May-15 05:31N 43°52' E 010°14'0 0.0
2015-May-15 04:31N 43°52' E 010°14'0 0.0
2015-May-15 03:31N 43°52' E 010°15'0 0.0
2015-May-15 02:31N 43°52' E 010°15'0 0.0
2015-May-15 01:28N 43°52' E 010°15'0 0.0
2015-May-15 00:28N 43°52' E 010°14'0 0.0
2015-May-14 23:31N 43°52' E 010°15'0 0.0
2015-May-14 22:31N 43°52' E 010°15'0 0.0
2015-May-14 21:31N 43°52' E 010°14'0 0.0
2015-May-14 20:31N 43°52' E 010°15'0 0.0
2015-May-14 19:31N 43°52' E 010°14'0 0.0
2015-May-14 18:31N 43°52' E 010°14'0 0.0
2015-May-14 17:31N 43°52' E 010°15'0 0.0
2015-May-14 16:28N 43°52' E 010°15'0 0.0
2015-May-14 15:31N 43°52' E 010°15'0 0.0
2015-May-14 14:31N 43°52' E 010°15'0 0.0
2015-May-14 13:31N 43°52' E 010°15'0 0.0
2015-May-14 12:31N 43°52' E 010°15'0 0.0
2015-May-14 11:31N 43°52' E 010°15'0 0.0
2015-May-14 10:34N 43°52' E 010°15'0 0.0
2015-May-14 09:33N 43°52' E 010°14'0 0.0
2015-May-14 08:33N 43°52' E 010°15'0 0.0
2015-May-14 07:33N 43°52' E 010°15'0 0.0
2015-May-14 06:33N 43°52' E 010°15'0 0.0
2015-May-14 05:33N 43°52' E 010°15'0 0.0
2015-May-14 04:33N 43°52' E 010°15'0 0.0
2015-May-14 03:33N 43°52' E 010°15'0 0.0
2015-May-14 02:30N 43°52' E 010°15'0 0.0
2015-May-14 01:33N 43°52' E 010°15'0 0.0
2015-May-14 00:30N 43°52' E 010°14'0 0.0
2015-May-13 23:33N 43°52' E 010°14'0 0.0
2015-May-13 22:33N 43°52' E 010°14'0 0.0
2015-May-13 21:33N 43°52' E 010°14'0 0.0
2015-May-13 20:33N 43°52' E 010°15'0 0.0
2015-May-13 19:33N 43°52' E 010°14'0 0.0
2015-May-13 18:33N 43°52' E 010°15'0 0.0
2015-May-13 17:30N 43°52' E 010°14'0 0.0
2015-May-13 16:33N 43°52' E 010°14'0 0.0
2015-May-13 15:33N 43°52' E 010°15'0 0.0
2015-May-13 14:33N 43°52' E 010°15'0 0.0
2015-May-13 13:33N 43°52' E 010°15'0 0.0
2015-May-13 12:33N 43°52' E 010°15'0 0.0
2015-May-13 11:33N 43°52' E 010°15'0 0.0
2015-May-13 10:30N 43°52' E 010°14'0 0.0
2015-May-13 09:33N 43°52' E 010°14'0 0.0
2015-May-13 08:33N 43°52' E 010°15'0 0.0
2015-May-13 07:30N 43°52' E 010°14'0 0.0
2015-May-13 06:33N 43°52' E 010°15'0 0.0
2015-May-13 05:33N 43°52' E 010°15'0 0.0
2015-May-13 04:30N 43°52' E 010°14'0 0.0
2015-May-13 03:33N 43°52' E 010°15'0 0.0
2015-May-13 02:33N 43°52' E 010°15'0 0.0
2015-May-13 01:33N 43°52' E 010°15'0 0.0
2015-May-13 00:33N 43°52' E 010°15'0 0.0
2015-May-12 23:33N 43°52' E 010°14'0 0.0
2015-May-12 22:33N 43°52' E 010°14'0 0.0
2015-May-12 21:33N 43°52' E 010°15'0 0.0
2015-May-12 20:33N 43°52' E 010°14'0 0.0
2015-May-12 19:30N 43°52' E 010°14'0 0.0
2015-May-12 18:33N 43°52' E 010°14'0 0.0
2015-May-12 17:33N 43°52' E 010°14'0 0.0
2015-May-12 16:33N 43°52' E 010°15'0 0.0
2015-May-12 15:33N 43°52' E 010°15'0 0.0
2015-May-12 14:30N 43°52' E 010°14'0 0.0
2015-May-12 13:33N 43°52' E 010°15'0 0.0
2015-May-12 12:30N 43°52' E 010°15'0 0.0
2015-May-12 11:33N 43°52' E 010°14'0 0.0
2015-May-12 10:33N 43°52' E 010°14'0 0.0
2015-May-12 09:27N 43°52' E 010°14'0 0.0
2015-May-12 08:33N 43°52' E 010°15'0 0.0
2015-May-12 07:33N 43°52' E 010°14'0 0.0
2015-May-12 06:33N 43°52' E 010°15'0 0.0
2015-May-12 05:33N 43°52' E 010°14'0 0.0
2015-May-12 04:33N 43°52' E 010°15'0 0.0
2015-May-12 03:33N 43°52' E 010°14'0 0.0
2015-May-12 02:33N 43°52' E 010°15'0 0.0
2015-May-12 01:33N 43°52' E 010°15'0 0.0
2015-May-12 00:32N 43°52' E 010°14'0 0.0
2015-May-11 23:32N 43°52' E 010°15'0 0.0
2015-May-11 22:32N 43°52' E 010°15'0 0.0
2015-May-11 21:32N 43°52' E 010°15'0 0.0
2015-May-11 20:32N 43°52' E 010°14'0 0.0
2015-May-11 19:32N 43°52' E 010°15'0 0.0
2015-May-11 18:32N 43°52' E 010°14'0 0.0
2015-May-11 17:32N 43°52' E 010°14'0 0.0
2015-May-11 16:32N 43°52' E 010°14'0 0.0
2015-May-11 15:32N 43°52' E 010°14'0 0.0
2015-May-11 14:32N 43°52' E 010°15'0 0.0
2015-May-11 13:32N 43°52' E 010°14'0 0.0
2015-May-11 12:29N 43°52' E 010°15'0 0.0
2015-May-11 11:32N 43°52' E 010°15'0 0.0
2015-May-11 10:32N 43°52' E 010°14'0 0.0
2015-May-11 09:32N 43°52' E 010°14'0 0.0
2015-May-11 08:32N 43°52' E 010°15'0 0.0
2015-May-11 07:32N 43°52' E 010°14'0 0.0
2015-May-11 06:32N 43°52' E 010°15'0 0.0
2015-May-11 05:32N 43°52' E 010°15'0 0.0
2015-May-11 04:32N 43°52' E 010°14'0 0.0
2015-May-11 03:32N 43°52' E 010°14'0 0.0
2015-May-11 02:32N 43°52' E 010°15'0 0.0
2015-May-11 01:32N 43°52' E 010°14'0 0.0
2015-May-11 00:32N 43°52' E 010°15'0 0.0
2015-May-10 23:32N 43°52' E 010°15'0 0.0
2015-May-10 22:32N 43°52' E 010°15'0 0.0
2015-May-10 21:32N 43°52' E 010°15'0 0.0
2015-May-10 20:32N 43°52' E 010°14'0 0.0
2015-May-10 19:32N 43°52' E 010°15'0 0.0
2015-May-10 18:32N 43°52' E 010°14'0 0.0
2015-May-10 17:32N 43°52' E 010°15'0 0.0
2015-May-10 16:29N 43°52' E 010°15'0 0.0
2015-May-10 15:32N 43°52' E 010°15'0 0.0
2015-May-10 14:32N 43°52' E 010°15'0 0.0
2015-May-10 13:32N 43°52' E 010°15'0 0.0
2015-May-10 12:32N 43°52' E 010°15'0 0.0
2015-May-10 11:31N 43°52' E 010°15'0 0.0
2015-May-10 10:31N 43°52' E 010°15'0 0.0
2015-May-10 09:31N 43°52' E 010°14'0 0.0
2015-May-10 08:31N 43°52' E 010°15'0 0.0
2015-May-10 07:31N 43°52' E 010°15'0 0.0
2015-May-10 06:31N 43°52' E 010°15'0 0.0
2015-May-10 05:31N 43°52' E 010°15'0 0.0
2015-May-10 04:31N 43°52' E 010°15'0 0.0
2015-May-10 03:31N 43°52' E 010°14'0 0.0
2015-May-10 02:31N 43°52' E 010°15'0 0.0
2015-May-10 01:31N 43°52' E 010°15'0 0.0
2015-May-10 00:31N 43°52' E 010°15'0 0.0
2015-May-09 23:31N 43°52' E 010°15'0 0.0
2015-May-09 22:25N 43°52' E 010°15'0 0.0
2015-May-09 21:31N 43°52' E 010°15'0 0.0
2015-May-09 20:31N 43°52' E 010°14'  
Track history (hours):
 
Tides and Currents Weather Stations Pressure Air Temp Water Temp Dewpoint Dewpoint Depression Visibility Wind Speed Wind Dir Waves Ship Positions

Mischief

Last reported at 2015-May-19 20:18 UTC. Time now 2015-Aug-01 11:51 UTC.
Position N 43°42' E 007°17'.
Warning: this ship's position is months out of date.

Length 53 m.

Type: Pleasure craft. MMSI: 247064680.

Date/timePositionNaut miles runAvg speedWind from/ knotsBaromVisibWave heightAir tempDewpointWater temp
2015-May-19 20:18N 43°42' E 007°17'0 0.0
2015-May-19 19:33N 43°42' E 007°17'0 0.0
2015-May-19 18:33N 43°42' E 007°17'0 0.0
2015-May-19 17:33N 43°42' E 007°17'0 0.0
2015-May-19 16:33N 43°42' E 007°17'2 1.6
2015-May-19 15:33N 43°40' E 007°18'4 3.5
2015-May-19 14:32N 43°43' E 007°22'3 2.8
2015-May-19 13:30N 43°40' E 007°23'5317.5
2015-May-19 10:27N 43°45' E 008°37'1517.0
2015-May-19 09:33N 43°45' E 008°58'1515.4
2015-May-19 08:33N 43°47' E 009°19'1515.2
2015-May-19 07:33N 43°49' E 009°40'1515.1
2015-May-19 06:34N 43°50' E 010°01'9 8.8
2015-May-19 05:33N 43°52' E 010°13'1 1.4
2015-May-19 04:32N 43°52' E 010°15'0 0.0
2015-May-18 15:33N 43°52' E 010°15'0 0.0
2015-May-18 14:33N 43°52' E 010°15'0 0.0
2015-May-18 13:33N 43°52' E 010°15'0 0.0
2015-May-18 12:33N 43°52' E 010°15'0 0.0
2015-May-18 11:33N 43°52' E 010°15'0 0.0
2015-May-18 10:33N 43°52' E 010°15'0 0.0
2015-May-17 08:33N 43°52' E 010°14'0 0.0
2015-May-16 18:04N 43°52' E 010°14'0 0.0
2015-May-16 17:31N 43°52' E 010°14'0 0.0
2015-May-16 16:31N 43°52' E 010°14'0 0.0
2015-May-16 15:28N 43°52' E 010°15'0 0.0
2015-May-16 14:32N 43°52' E 010°15'0 0.0
2015-May-16 13:26N 43°52' E 010°14'0 0.0
2015-May-16 12:32N 43°52' E 010°15'0 0.0
2015-May-16 11:32N 43°52' E 010°15'0 0.0
2015-May-16 10:32N 43°52' E 010°15'0 0.0
2015-May-16 09:32N 43°52' E 010°15'0 0.0
2015-May-16 08:32N 43°52' E 010°14'0 0.0
2015-May-16 07:32N 43°52' E 010°15'0 0.0
2015-May-16 06:29N 43°52' E 010°15'0 0.0
2015-May-16 05:32N 43°52' E 010°15'0 0.0
2015-May-16 04:32N 43°52' E 010°14'0 0.0
2015-May-16 03:32N 43°52' E 010°14'0 0.0
2015-May-16 02:32N 43°52' E 010°14'0 0.0
2015-May-16 01:32N 43°52' E 010°14'0 0.0
2015-May-16 00:32N 43°52' E 010°15'0 0.0
2015-May-15 23:32N 43°52' E 010°14'0 0.0
2015-May-15 22:32N 43°52' E 010°15'0 0.0
2015-May-15 21:31N 43°52' E 010°15'0 0.0
2015-May-15 20:28N 43°52' E 010°15'0 0.0
2015-May-15 19:31N 43°52' E 010°14'0 0.0
2015-May-15 18:31N 43°52' E 010°14'0 0.0
2015-May-15 17:31N 43°52' E 010°15'0 0.0
2015-May-15 16:31N 43°52' E 010°14'0 0.0
2015-May-15 15:31N 43°52' E 010°15'0 0.0
2015-May-15 14:31N 43°52' E 010°15'0 0.0
2015-May-15 13:31N 43°52' E 010°15'0 0.0
2015-May-15 12:31N 43°52' E 010°15'0 0.0
2015-May-15 11:31N 43°52' E 010°15'0 0.0
2015-May-15 10:31N 43°52' E 010°14'0 0.0
2015-May-15 09:31N 43°52' E 010°14'0 0.0
2015-May-15 08:31N 43°52' E 010°14'0 0.0
2015-May-15 07:31N 43°52' E 010°15'0 0.0
2015-May-15 06:31N 43°52' E 010°15'0 0.0
2015-May-15 05:31N 43°52' E 010°14'0 0.0
2015-May-15 04:31N 43°52' E 010°14'0 0.0
2015-May-15 03:31N 43°52' E 010°15'0 0.0
2015-May-15 02:31N 43°52' E 010°15'0 0.0
2015-May-15 01:28N 43°52' E 010°15'0 0.0
2015-May-15 00:28N 43°52' E 010°14'0 0.0
2015-May-14 23:31N 43°52' E 010°15'0 0.0
2015-May-14 22:31N 43°52' E 010°15'0 0.0
2015-May-14 21:31N 43°52' E 010°14'0 0.0
2015-May-14 20:31N 43°52' E 010°15'0 0.0
2015-May-14 19:31N 43°52' E 010°14'0 0.0
2015-May-14 18:31N 43°52' E 010°14'0 0.0
2015-May-14 17:31N 43°52' E 010°15'0 0.0
2015-May-14 16:28N 43°52' E 010°15'0 0.0
2015-May-14 15:31N 43°52' E 010°15'0 0.0
2015-May-14 14:31N 43°52' E 010°15'0 0.0
2015-May-14 13:31N 43°52' E 010°15'0 0.0
2015-May-14 12:31N 43°52' E 010°15'0 0.0
2015-May-14 11:31N 43°52' E 010°15'0 0.0
2015-May-14 10:34N 43°52' E 010°15'0 0.0
2015-May-14 09:33N 43°52' E 010°14'0 0.0
2015-May-14 08:33N 43°52' E 010°15'0 0.0
2015-May-14 07:33N 43°52' E 010°15'0 0.0
2015-May-14 06:33N 43°52' E 010°15'0 0.0
2015-May-14 05:33N 43°52' E 010°15'0 0.0
2015-May-14 04:33N 43°52' E 010°15'0 0.0
2015-May-14 03:33N 43°52' E 010°15'0 0.0
2015-May-14 02:30N 43°52' E 010°15'0 0.0
2015-May-14 01:33N 43°52' E 010°15'0 0.0
2015-May-14 00:30N 43°52' E 010°14'0 0.0
2015-May-13 23:33N 43°52' E 010°14'0 0.0
2015-May-13 22:33N 43°52' E 010°14'0 0.0
2015-May-13 21:33N 43°52' E 010°14'0 0.0
2015-May-13 20:33N 43°52' E 010°15'0 0.0
2015-May-13 19:33N 43°52' E 010°14'0 0.0
2015-May-13 18:33N 43°52' E 010°15'0 0.0
2015-May-13 17:30N 43°52' E 010°14'0 0.0
2015-May-13 16:33N 43°52' E 010°14'0 0.0
2015-May-13 15:33N 43°52' E 010°15'0 0.0
2015-May-13 14:33N 43°52' E 010°15'0 0.0
2015-May-13 13:33N 43°52' E 010°15'0 0.0
2015-May-13 12:33N 43°52' E 010°15'0 0.0
2015-May-13 11:33N 43°52' E 010°15'0 0.0
2015-May-13 10:30N 43°52' E 010°14'0 0.0
2015-May-13 09:33N 43°52' E 010°14'0 0.0
2015-May-13 08:33N 43°52' E 010°15'0 0.0
2015-May-13 07:30N 43°52' E 010°14'0 0.0
2015-May-13 06:33N 43°52' E 010°15'0 0.0
2015-May-13 05:33N 43°52' E 010°15'0 0.0
2015-May-13 04:30N 43°52' E 010°14'0 0.0
2015-May-13 03:33N 43°52' E 010°15'0 0.0
2015-May-13 02:33N 43°52' E 010°15'0 0.0
2015-May-13 01:33N 43°52' E 010°15'0 0.0
2015-May-13 00:33N 43°52' E 010°15'0 0.0
2015-May-12 23:33N 43°52' E 010°14'0 0.0
2015-May-12 22:33N 43°52' E 010°14'0 0.0
2015-May-12 21:33N 43°52' E 010°15'0 0.0
2015-May-12 20:33N 43°52' E 010°14'0 0.0
2015-May-12 19:30N 43°52' E 010°14'0 0.0
2015-May-12 18:33N 43°52' E 010°14'0 0.0
2015-May-12 17:33N 43°52' E 010°14'0 0.0
2015-May-12 16:33N 43°52' E 010°15'0 0.0
2015-May-12 15:33N 43°52' E 010°15'0 0.0
2015-May-12 14:30N 43°52' E 010°14'0 0.0
2015-May-12 13:33N 43°52' E 010°15'0 0.0
2015-May-12 12:30N 43°52' E 010°15'0 0.0
2015-May-12 11:33N 43°52' E 010°14'0 0.0
2015-May-12 10:33N 43°52' E 010°14'0 0.0
2015-May-12 09:27N 43°52' E 010°14'0 0.0
2015-May-12 08:33N 43°52' E 010°15'0 0.0
2015-May-12 07:33N 43°52' E 010°14'0 0.0
2015-May-12 06:33N 43°52' E 010°15'0 0.0
2015-May-12 05:33N 43°52' E 010°14'0 0.0
2015-May-12 04:33N 43°52' E 010°15'0 0.0
2015-May-12 03:33N 43°52' E 010°14'0 0.0
2015-May-12 02:33N 43°52' E 010°15'0 0.0
2015-May-12 01:33N 43°52' E 010°15'0 0.0
2015-May-12 00:32N 43°52' E 010°14'0 0.0
2015-May-11 23:32N 43°52' E 010°15'0 0.0
2015-May-11 22:32N 43°52' E 010°15'0 0.0
2015-May-11 21:32N 43°52' E 010°15'0 0.0
2015-May-11 20:32N 43°52' E 010°14'0 0.0
2015-May-11 19:32N 43°52' E 010°15'0 0.0
2015-May-11 18:32N 43°52' E 010°14'0 0.0
2015-May-11 17:32N 43°52' E 010°14'0 0.0
2015-May-11 16:32N 43°52' E 010°14'0 0.0
2015-May-11 15:32N 43°52' E 010°14'0 0.0
2015-May-11 14:32N 43°52' E 010°15'0 0.0
2015-May-11 13:32N 43°52' E 010°14'0 0.0
2015-May-11 12:29N 43°52' E 010°15'0 0.0
2015-May-11 11:32N 43°52' E 010°15'0 0.0
2015-May-11 10:32N 43°52' E 010°14'0 0.0
2015-May-11 09:32N 43°52' E 010°14'0 0.0
2015-May-11 08:32N 43°52' E 010°15'0 0.0
2015-May-11 07:32N 43°52' E 010°14'0 0.0
2015-May-11 06:32N 43°52' E 010°15'0 0.0
2015-May-11 05:32N 43°52' E 010°15'0 0.0
2015-May-11 04:32N 43°52' E 010°14'0 0.0
2015-May-11 03:32N 43°52' E 010°14'0 0.0
2015-May-11 02:32N 43°52' E 010°15'0 0.0
2015-May-11 01:32N 43°52' E 010°14'0 0.0
2015-May-11 00:32N 43°52' E 010°15'0 0.0
2015-May-10 23:32N 43°52' E 010°15'0 0.0
2015-May-10 22:32N 43°52' E 010°15'0 0.0
2015-May-10 21:32N 43°52' E 010°15'0 0.0
2015-May-10 20:32N 43°52' E 010°14'0 0.0
2015-May-10 19:32N 43°52' E 010°15'0 0.0
2015-May-10 18:32N 43°52' E 010°14'0 0.0
2015-May-10 17:32N 43°52' E 010°15'0 0.0
2015-May-10 16:29N 43°52' E 010°15'0 0.0
2015-May-10 15:32N 43°52' E 010°15'0 0.0
2015-May-10 14:32N 43°52' E 010°15'0 0.0
2015-May-10 13:32N 43°52' E 010°15'0 0.0
2015-May-10 12:32N 43°52' E 010°15'0 0.0
2015-May-10 11:31N 43°52' E 010°15'0 0.0
2015-May-10 10:31N 43°52' E 010°15'0 0.0
2015-May-10 09:31N 43°52' E 010°14'0 0.0
2015-May-10 08:31N 43°52' E 010°15'0 0.0
2015-May-10 07:31N 43°52' E 010°15'0 0.0
2015-May-10 06:31N 43°52' E 010°15'0 0.0
2015-May-10 05:31N 43°52' E 010°15'0 0.0
2015-May-10 04:31N 43°52' E 010°15'0 0.0
2015-May-10 03:31N 43°52' E 010°14'0 0.0
2015-May-10 02:31N 43°52' E 010°15'0 0.0
2015-May-10 01:31N 43°52' E 010°15'0 0.0
2015-May-10 00:31N 43°52' E 010°15'0 0.0
2015-May-09 23:31N 43°52' E 010°15'0 0.0
2015-May-09 22:25N 43°52' E 010°15'0 0.0
2015-May-09 21:31N 43°52' E 010°15'0 0.0
2015-May-09 20:31N 43°52' E 010°14'  

Dump ship's entire track history